EST,Max TemperatureF,Mean TemperatureF,Min TemperatureF,Max Dew PointF,MeanDew PointF,Min DewpointF,Max Humidity, Mean Humidity, Min Humidity, Max Sea Level PressureIn, Mean Sea Level PressureIn, Min Sea Level PressureIn, Max VisibilityMiles, Mean VisibilityMiles, Min VisibilityMiles, Max Wind SpeedMPH, Mean Wind SpeedMPH, Max Gust SpeedMPH,PrecipitationIn, CloudCover, Events, WindDirDegrees
2014-1-1,33,26,19,19,12,6,66,54,43,30.43,30.36,30.27,10,10,10,14,7,18,0.00,2,,289
2014-1-2,32,26,18,28,25,14,93,82,56,30.27,29.97,29.66,10,3,0,24,14,36,0.18,8,Fog-Rain-Snow,44
2014-1-3,18,10,-2,12,6,-10,84,69,51,30.47,29.99,29.58,10,3,0,28,20,38,0.11,2,Fog-Snow,341
2014-1-4,34,12,-11,24,4,-16,82,69,52,30.57,30.44,30.33,10,10,10,17,3,17,0.04,0,,246
2014-1-5,50,26,3,49,30,-2,96,84,75,30.35,30.18,29.86,10,8,0,14,3,22,0.00,7,Fog-Rain,89
2014-1-6,55,44,28,54,44,11,97,88,47,29.81,29.55,29.42,10,5,0,25,12,47,0.14,7,Fog-Rain,218
2014-1-7,25,16,8,8,-7,-12,50,44,35,30.38,30.09,29.67,10,10,10,28,19,40,0.00,0,,270
2014-1-8,21,13,5,4,-1,-7,64,53,38,30.56,30.49,30.40,10,10,10,10,8,,0.00,0,,250
2014-1-9,30,19,8,10,6,0,73,53,40,30.68,30.61,30.50,10,10,10,13,5,20,0.00,0,,298
2014-1-10,41,25,9,39,31,3,93,86,69,30.60,30.40,30.26,10,4,0,5,1,,0.05,8,Fog-Rain,335
2014-1-11,55,47,39,54,50,37,100,93,87,30.24,29.72,29.38,10,4,0,22,10,33,0.72,8,Fog-Rain,185
2014-1-12,48,38,27,46,33,20,97,69,42,30.08,29.69,29.42,10,8,0,24,13,34,0.10,3,Fog-Rain,264
2014-1-13,50,36,21,45,34,17,88,77,61,30.19,30.09,29.96,10,10,8,14,6,22,0.00,0,,192
2014-1-14,51,48,42,49,45,39,94,88,74,29.94,29.79,29.66,10,6,1,15,8,25,0.81,7,Rain,235
2014-1-15,45,36,26,43,36,24,100,93,81,30.04,29.96,29.85,7,1,0,8,2,,0.00,5,Fog,224
2014-1-16,42,38,35,39,36,32,100,89,76,29.96,29.90,29.86,10,5,0,8,4,,0.00,7,Fog,335
2014-1-17,44,32,21,35,27,19,89,78,49,30.03,29.97,29.92,10,7,1,13,2,17,0.00,2,,202
2014-1-18,46,38,28,42,31,19,93,74,60,29.90,29.74,29.61,10,10,6,18,6,26,0.04,7,Rain,293
2014-1-19,37,32,26,26,20,17,72,61,51,29.82,29.75,29.68,10,10,10,22,12,30,0.00,2,,247
2014-1-20,46,41,33,29,24,20,70,53,39,29.89,29.69,29.58,10,10,10,17,13,28,0.00,3,,268
2014-1-21,30,24,17,16,12,8,81,70,51,30.03,29.91,29.77,10,4,0,21,12,29,0.25,6,Snow,17
2014-1-22,16,13,10,10,4,-2,80,68,51,29.97,29.77,29.71,10,5,1,23,18,33,0.01,4,Snow,344
2014-1-23,18,6,-5,2,-2,-12,72,56,45,30.27,30.13,29.98,10,10,10,15,7,18,0.00,1,,285
2014-1-24,17,8,0,1,-3,-9,75,55,41,30.37,30.28,30.14,10,10,6,18,8,24,0.00,2,,276
2014-1-25,37,28,19,25,20,5,86,68,48,30.09,29.62,29.45,10,6,0,22,16,41,0.02,7,Snow,232
2014-1-26,37,24,12,26,8,0,68,54,40,29.91,29.80,29.48,10,10,10,18,12,31,0.00,4,,256
2014-1-27,44,34,21,35,23,-2,76,58,31,30.06,29.79,29.64,10,10,9,21,11,31,0.00,6,,248
2014-1-28,21,18,15,1,-4,-7,50,38,33,30.37,30.28,30.07,10,10,10,18,10,28,0.00,2,,311
2014-1-29,23,16,6,14,7,-6,86,66,34,30.30,30.17,30.09,10,5,1,16,7,20,0.06,5,Snow,299
2014-1-30,25,10,-5,11,0,-14,79,61,41,30.48,30.38,30.23,10,10,10,13,3,,0.00,0,,233
2014-1-31,43,26,10,20,16,3,79,59,34,30.27,30.16,30.10,10,10,10,17,4,21,0.00,2,,279